createdAt,value
2023-01-22T00:00:29.544Z,103502.31
2023-01-22T00:01:03.705Z,103503.13
2023-01-22T00:01:35.549Z,103496.97
2023-01-22T00:02:07.149Z,103502.31
2023-01-22T00:02:38.663Z,103492.06
2023-01-22T00:03:10.457Z,103507.06
2023-01-22T00:03:44.043Z,103499.03
2023-01-22T00:04:17.064Z,103500.22
2023-01-22T00:04:48.646Z,103502.91
2023-01-22T00:05:21.224Z,103501.84
2023-01-22T00:05:52.851Z,103502.91
2023-01-22T00:06:25.779Z,103499.19
2023-01-22T00:06:57.667Z,103497.56
2023-01-22T00:07:29.307Z,103493.03
2023-01-22T00:08:00.975Z,103494.66
2023-01-22T00:08:33.558Z,103505.28
2023-01-22T00:09:05.219Z,103506.09
2023-01-22T00:09:38.446Z,103493.16
2023-01-22T00:10:11.419Z,103489.69
2023-01-22T00:10:50.064Z,103498.28
2023-01-22T00:11:21.869Z,103496.22
2023-01-22T00:11:53.619Z,103492.94
2023-01-22T00:12:25.911Z,103485.72
2023-01-22T00:12:57.415Z,103491.66
2023-01-22T00:13:31.459Z,103490.84
2023-01-22T00:14:04.045Z,103488.19
2023-01-22T00:14:38.435Z,103486.91
2023-01-22T00:15:10.161Z,103480.97
2023-01-22T00:16:00.292Z,103490.97
2023-01-22T00:16:33.826Z,103480.97
2023-01-22T00:17:05.299Z,103478.53
2023-01-22T00:17:37.920Z,103491.19
2023-01-22T00:18:09.757Z,103486.66
2023-01-22T00:18:44.679Z,103477.50
2023-01-22T00:19:16.364Z,103486.09
2023-01-22T00:19:48.002Z,103484.47
2023-01-22T00:20:19.946Z,103481.78
2023-01-22T00:20:55.531Z,103479.13
2023-01-22T00:21:27.791Z,103477.25
2023-01-22T00:22:00.100Z,103490.97
2023-01-22T00:22:31.580Z,103475.41
2023-01-22T00:23:06.485Z,103481.31
2023-01-22T00:23:38.783Z,103472.94
2023-01-22T00:24:10.588Z,103481.91
2023-01-22T00:24:42.340Z,103477.81
2023-01-22T00:25:15.859Z,103475.41
2023-01-22T00:25:47.724Z,103477.00
2023-01-22T00:26:21.032Z,103473.88
2023-01-22T00:26:52.539Z,103474.69
2023-01-22T00:27:24.007Z,103482.72
2023-01-22T00:27:55.718Z,103472.47
2023-01-22T00:28:27.225Z,103468.75
2023-01-22T00:29:01.581Z,103479.59
2023-01-22T00:29:33.224Z,103472.25
2023-01-22T00:30:05.370Z,103470.97
2023-01-22T00:30:36.842Z,103471.19
2023-01-22T00:31:10.360Z,103474.84
2023-01-22T00:31:41.996Z,103469.47
2023-01-22T00:32:13.718Z,103464.59
2023-01-22T00:32:46.199Z,103470.06
2023-01-22T00:33:17.667Z,103468.66
2023-01-22T00:33:49.112Z,103470.28
2023-01-22T00:34:20.549Z,103465.19
2023-01-22T00:34:54.905Z,103463.31
2023-01-22T00:35:26.444Z,103463.91
2023-01-22T00:36:04.841Z,103469.84
2023-01-22T00:36:36.282Z,103470.06
2023-01-22T00:37:07.853Z,103467.03
2023-01-22T00:37:39.901Z,103467.41
2023-01-22T00:38:11.318Z,103476.81
2023-01-22T00:38:44.196Z,103464.34
2023-01-22T00:39:15.768Z,103463.09
2023-01-22T00:39:47.435Z,103462.50
2023-01-22T00:40:19.461Z,103473.56
2023-01-22T00:40:52.571Z,103458.41
2023-01-22T00:41:24.360Z,103470.66
2023-01-22T00:41:55.861Z,103458.19
2023-01-22T00:42:27.502Z,103461.22
2023-01-22T00:43:01.471Z,103464.13
2023-01-22T00:43:34.490Z,103466.56
2023-01-22T00:44:05.982Z,103461.09
2023-01-22T00:44:37.398Z,103454.13
2023-01-22T00:45:09.869Z,103453.88
2023-01-22T00:45:44.317Z,103453.31
2023-01-22T00:46:17.463Z,103458.41
2023-01-22T00:46:49.115Z,103462.97
2023-01-22T00:47:20.637Z,103461.09
2023-01-22T00:47:52.101Z,103459.47
2023-01-22T00:48:23.611Z,103458.19
2023-01-22T00:48:55.012Z,103461.91
2023-01-22T00:49:26.569Z,103461.47
2023-01-22T00:50:02.018Z,103451.66
2023-01-22T00:50:33.580Z,103451.66
2023-01-22T00:51:05.941Z,103454.69
2023-01-22T00:51:39.502Z,103447.13
2023-01-22T00:52:11.246Z,103459.00
2023-01-22T00:52:42.714Z,103449.81
2023-01-22T00:53:14.329Z,103461.09
2023-01-22T00:53:50.186Z,103458.78
2023-01-22T00:54:26.735Z,103453.31
2023-01-22T00:55:00.184Z,103455.97
2023-01-22T00:55:33.856Z,103458.19
2023-01-22T00:56:05.871Z,103460.06
2023-01-22T00:56:39.284Z,103453.06
2023-01-22T00:57:13.137Z,103454.69
2023-01-22T00:57:44.573Z,103456.34
2023-01-22T00:58:16.110Z,103455.75
2023-01-22T00:58:50.644Z,103451.81
2023-01-22T00:59:22.311Z,103457.16
2023-01-22T00:59:53.901Z,103457.97
2023-01-22T01:00:26.834Z,103453.66
2023-01-22T01:01:03.891Z,103446.09
2023-01-22T01:01:35.476Z,103453.66
2023-01-22T01:02:06.971Z,103454.47
2023-01-22T01:02:58.505Z,103453.06
2023-01-22T01:03:34.150Z,103449.81
2023-01-22T01:04:05.740Z,103449.00
2023-01-22T01:04:38.601Z,103449.00
2023-01-22T01:05:12.457Z,103456.56
2023-01-22T01:05:46.126Z,103460.06
2023-01-22T01:06:22.119Z,103457.84
2023-01-22T01:06:53.755Z,103451.66
2023-01-22T01:07:25.308Z,103455.75
2023-01-22T01:08:01.843Z,103455.16
2023-01-22T01:08:36.670Z,103457.00
2023-01-22T01:09:10.185Z,103451.06
2023-01-22T01:09:46.522Z,103455.16
2023-01-22T01:10:18.347Z,103448.19
2023-01-22T01:10:57.363Z,103452.47
2023-01-22T01:11:29.760Z,103446.81
2023-01-22T01:12:01.728Z,103450.03
2023-01-22T01:12:34.798Z,103450.84
2023-01-22T01:13:06.326Z,103447.03
2023-01-22T01:13:39.848Z,103442.50
2023-01-22T01:14:13.619Z,103445.72
2023-01-22T01:14:46.622Z,103442.50
2023-01-22T01:15:21.360Z,103446.22
2023-01-22T01:16:04.064Z,103439.47
2023-01-22T01:16:35.789Z,103446.22
2023-01-22T01:17:07.702Z,103442.72
2023-01-22T01:17:49.285Z,103441.69
2023-01-22T01:18:23.984Z,103441.69
2023-01-22T01:19:06.257Z,103444.13
2023-01-22T01:19:37.869Z,103441.69
2023-01-22T01:20:11.842Z,103443.31
2023-01-22T01:20:45.434Z,103437.38
2023-01-22T01:21:18.116Z,103438.78
2023-01-22T01:21:49.707Z,103436.34
2023-01-22T01:22:21.181Z,103432.84
2023-01-22T01:22:55.634Z,103432.25
2023-01-22T01:23:28.532Z,103442.00
2023-01-22T01:24:00.558Z,103432.84
2023-01-22T01:24:32.436Z,103440.75
2023-01-22T01:25:09.143Z,103437.47
2023-01-22T01:25:42.360Z,103429.47
2023-01-22T01:26:16.094Z,103431.31
2023-01-22T01:26:47.627Z,103432.72
2023-01-22T01:27:19.200Z,103437.03
2023-01-22T01:27:50.760Z,103432.34
2023-01-22T01:28:25.425Z,103433.44
2023-01-22T01:28:58.989Z,103442.38
2023-01-22T01:29:30.524Z,103431.53
2023-01-22T01:30:04.384Z,103439.13
2023-01-22T01:30:38.101Z,103439.13
2023-01-22T01:31:13.160Z,103433.19
2023-01-22T01:31:46.197Z,103440.50
2023-01-22T01:32:17.693Z,103432.94
2023-01-22T01:32:51.381Z,103436.22
2023-01-22T01:33:25.678Z,103433.31
2023-01-22T01:33:57.684Z,103434.34
2023-01-22T01:34:29.149Z,103426.78
2023-01-22T01:35:00.709Z,103428.19
2023-01-22T01:35:32.217Z,103428.41
2023-01-22T01:36:07.105Z,103432.72
2023-01-22T01:36:53.765Z,103431.31
2023-01-22T01:37:27.301Z,103441.91
2023-01-22T01:37:59.080Z,103423.28
2023-01-22T01:38:33.284Z,103433.31
2023-01-22T01:39:04.823Z,103419.56
2023-01-22T01:39:43.415Z,103437.63
2023-01-22T01:40:15.002Z,103431.91
2023-01-22T01:40:48.826Z,103434.94
2023-01-22T01:41:23.938Z,103427.59
2023-01-22T01:41:55.621Z,103422.03
2023-01-22T01:42:43.378Z,103429.59
2023-01-22T01:43:16.404Z,103423.06
2023-01-22T01:44:08.868Z,103426.31
2023-01-22T01:44:42.167Z,103429.81
2023-01-22T01:45:30.596Z,103429.59
2023-01-22T01:46:07.990Z,103422.03
2023-01-22T01:46:54.608Z,103419.34
2023-01-22T01:47:34.569Z,103418.31
2023-01-22T01:48:40.961Z,103422.16
2023-01-22T01:49:22.126Z,103422.16
2023-01-22T01:49:54.355Z,103414.81
2023-01-22T01:50:29.449Z,103418.31
2023-01-22T01:51:11.712Z,103417.25
2023-01-22T01:51:45.964Z,103420.53
2023-01-22T01:52:18.143Z,103421.78
2023-01-22T01:52:51.707Z,103420.97
2023-01-22T01:53:23.518Z,103415.63
2023-01-22T01:53:58.559Z,103424.47
2023-01-22T01:54:32.807Z,103418.53
2023-01-22T01:55:05.165Z,103413.19
2023-01-22T01:55:40.040Z,103419.34
2023-01-22T01:56:18.949Z,103417.25
2023-01-22T01:57:03.221Z,103421.78
2023-01-22T01:57:37.778Z,103415.63
2023-01-22T01:58:21.717Z,103413.19
2023-01-22T01:58:59.204Z,103414.22
2023-01-22T01:59:33.769Z,103410.50
2023-01-22T02:00:12.615Z,103419.94
2023-01-22T02:00:51.491Z,103415.63
2023-01-22T02:01:28.996Z,103416.69
2023-01-22T02:02:04.591Z,103419.56
2023-01-22T02:02:39.336Z,103419.34
2023-01-22T02:03:12.792Z,103411.56
2023-01-22T02:03:46.968Z,103413.78
2023-01-22T02:04:20.272Z,103409.94
2023-01-22T02:04:55.233Z,103416.09
2023-01-22T02:05:31.865Z,103417.72
2023-01-22T02:06:06.121Z,103407.03
2023-01-22T02:06:39.587Z,103412.16
2023-01-22T02:07:13.363Z,103407.84
2023-01-22T02:07:44.927Z,103415.19
2023-01-22T02:08:18.858Z,103410.88
2023-01-22T02:08:52.051Z,103410.28
2023-01-22T02:09:24.687Z,103409.47
2023-01-22T02:09:58.967Z,103420.06
2023-01-22T02:10:30.589Z,103412.50
2023-01-22T02:11:02.225Z,103405.75
2023-01-22T02:11:34.198Z,103403.88
2023-01-22T02:12:06.356Z,103414.34
2023-01-22T02:12:37.835Z,103409.81
2023-01-22T02:13:16.661Z,103415.19
2023-01-22T02:13:59.913Z,103413.09
2023-01-22T02:14:35.413Z,103406.78
2023-01-22T02:15:10.721Z,103420.06
2023-01-22T02:15:44.845Z,103411.91
2023-01-22T02:16:16.681Z,103413.53
2023-01-22T02:17:08.999Z,103416.22
2023-01-22T02:17:43.204Z,103404.72
2023-01-22T02:18:15.478Z,103408.19
2023-01-22T02:18:50.496Z,103405.75
2023-01-22T02:19:24.860Z,103413.09
2023-01-22T02:19:59.632Z,103404.47
2023-01-22T02:20:42.069Z,103403.44
2023-01-22T02:21:37.194Z,103413.69
2023-01-22T02:22:23.800Z,103402.03
2023-01-22T02:22:55.592Z,103403.06
2023-01-22T02:23:30.185Z,103404.47
2023-01-22T02:24:15.709Z,103404.72
2023-01-22T02:24:47.464Z,103406.94
2023-01-22T02:25:22.331Z,103399.13
2023-01-22T02:25:54.150Z,103400.16
2023-01-22T02:26:28.178Z,103400.41
2023-01-22T02:26:59.658Z,103408.78
2023-01-22T02:27:32.570Z,103402.84
2023-01-22T02:28:04.194Z,103406.94
2023-01-22T02:28:37.458Z,103392.16
2023-01-22T02:29:11.041Z,103404.25
2023-01-22T02:29:42.457Z,103406.69
2023-01-22T02:30:14.573Z,103406.34
2023-01-22T02:30:46.341Z,103397.28
2023-01-22T02:31:20.428Z,103403.66
2023-01-22T02:31:51.995Z,103399.59
2023-01-22T02:32:25.418Z,103409.25
2023-01-22T02:32:56.994Z,103405.53
2023-01-22T02:33:28.479Z,103402.03
2023-01-22T02:34:02.789Z,103404.47
2023-01-22T02:34:34.509Z,103404.47
2023-01-22T02:35:06.783Z,103405.06
2023-01-22T02:35:41.052Z,103393.41
2023-01-22T02:36:15.286Z,103400.16
2023-01-22T02:36:51.271Z,103408.44
2023-01-22T02:37:25.267Z,103402.25
2023-01-22T02:37:59.454Z,103403.06
2023-01-22T02:38:34.040Z,103403.88
2023-01-22T02:39:10.549Z,103404.47
2023-01-22T02:39:47.463Z,103405.06
2023-01-22T02:40:20.030Z,103399.34
2023-01-22T02:40:51.948Z,103399.34
2023-01-22T02:41:23.784Z,103398.31
2023-01-22T02:41:58.223Z,103403.66
2023-01-22T02:42:39.104Z,103406.34
2023-01-22T02:43:10.766Z,103397.13
2023-01-22T02:43:42.645Z,103402.50
2023-01-22T02:44:18.460Z,103402.03
2023-01-22T02:44:52.911Z,103406.94
2023-01-22T02:45:24.704Z,103398.78
2023-01-22T02:45:58.963Z,103400.63
2023-01-22T02:46:33.739Z,103401.44
2023-01-22T02:47:06.838Z,103404.94
2023-01-22T02:47:39.175Z,103406.56
2023-01-22T02:48:13.403Z,103404.94
2023-01-22T02:48:45.142Z,103405.75
2023-01-22T02:49:20.425Z,103397.97
2023-01-22T02:49:54.557Z,103399.00
2023-01-22T02:50:28.771Z,103400.63
2023-01-22T02:51:02.928Z,103394.69
2023-01-22T02:51:37.199Z,103394.47
2023-01-22T02:52:08.987Z,103403.31
2023-01-22T02:52:40.936Z,103403.66
2023-01-22T02:53:12.500Z,103397.97
2023-01-22T02:53:46.535Z,103396.09
2023-01-22T02:54:20.842Z,103400.63
2023-01-22T02:54:52.460Z,103394.09
2023-01-22T02:55:24.203Z,103408.44
2023-01-22T02:56:26.830Z,103408.44
2023-01-22T02:58:04.819Z,103393.06
2023-01-22T02:58:37.174Z,103392.72
2023-01-22T02:59:11.723Z,103402.94
2023-01-22T02:59:43.585Z,103400.03
2023-01-22T03:00:16.527Z,103399.22
2023-01-22T03:00:50.724Z,103391.69
2023-01-22T03:01:41.133Z,103400.41
2023-01-22T03:02:15.595Z,103397.97
2023-01-22T03:02:50.092Z,103389.56
2023-01-22T03:03:22.114Z,103382.84
2023-01-22T03:04:49.741Z,103384.50
2023-01-22T03:05:23.801Z,103393.06
2023-01-22T03:05:55.852Z,103388.75
2023-01-22T03:06:32.686Z,103392.03
2023-01-22T03:07:06.797Z,103387.72
2023-01-22T03:07:45.405Z,103386.09
2023-01-22T03:08:18.652Z,103394.25
2023-01-22T03:08:56.244Z,103386.91
2023-01-22T03:09:33.580Z,103388.31
2023-01-22T03:10:07.811Z,103386.09
2023-01-22T03:10:41.736Z,103395.06
2023-01-22T03:11:20.965Z,103390.97
2023-01-22T03:11:55.581Z,103389.34
2023-01-22T03:12:30.752Z,103391.44
2023-01-22T03:13:25.836Z,103387.72
2023-01-22T03:14:16.202Z,103389.34
2023-01-22T03:15:09.532Z,103383.78
2023-01-22T03:16:01.929Z,103391.78
2023-01-22T03:16:52.439Z,103386.44
2023-01-22T03:17:42.663Z,103388.75
2023-01-22T03:18:33.496Z,103394.47
2023-01-22T03:19:23.598Z,103381.81
2023-01-22T03:20:13.931Z,103392.84
2023-01-22T03:21:04.283Z,103390.97
2023-01-22T03:21:44.177Z,103391.78
2023-01-22T03:22:17.372Z,103378.31
2023-01-22T03:22:49.226Z,103390.38
2023-01-22T03:23:21.042Z,103386.09
2023-01-22T03:23:58.317Z,103392.03
2023-01-22T03:24:33.567Z,103386.91
2023-01-22T03:25:10.018Z,103393.06
2023-01-22T03:25:42.237Z,103386.34
2023-01-22T03:26:16.994Z,103389.84
2023-01-22T03:26:51.306Z,103385.53
2023-01-22T03:27:27.641Z,103392.03
2023-01-22T03:28:18.936Z,103387.97
2023-01-22T03:28:57.974Z,103384.13
2023-01-22T03:29:31.448Z,103381.91
2023-01-22T03:30:06.629Z,103387.84
2023-01-22T03:30:40.591Z,103391.34
2023-01-22T03:31:17.755Z,103388.88
2023-01-22T03:31:49.569Z,103387.03
2023-01-22T03:32:22.238Z,103400.53
2023-01-22T03:32:53.706Z,103382.72
2023-01-22T03:33:25.611Z,103384.59
2023-01-22T03:33:57.636Z,103398.09
2023-01-22T03:34:29.407Z,103385.97
2023-01-22T03:35:04.396Z,103388.66
2023-01-22T03:35:36.765Z,103382.72
2023-01-22T03:36:13.489Z,103391.09
2023-01-22T03:36:46.142Z,103392.97
2023-01-22T03:37:18.405Z,103385.41
2023-01-22T03:37:50.233Z,103394.38
2023-01-22T03:38:23.721Z,103391.34
2023-01-22T03:38:55.399Z,103382.72
2023-01-22T03:39:29.727Z,103390.53
2023-01-22T03:40:07.297Z,103390.53
2023-01-22T03:40:40.800Z,103388.44
2023-01-22T03:41:17.050Z,103390.28
2023-01-22T03:41:51.278Z,103399.13
2023-01-22T03:42:24.971Z,103388.66
2023-01-22T03:42:59.089Z,103401.56
2023-01-22T03:43:34.666Z,103387.84
2023-01-22T03:44:09.297Z,103393.19
2023-01-22T03:44:42.255Z,103395.06
2023-01-22T03:45:17.971Z,103391.56
2023-01-22T03:45:49.966Z,103395.88
2023-01-22T03:46:22.033Z,103396.91
2023-01-22T03:46:58.323Z,103398.19
2023-01-22T03:47:29.847Z,103398.75
2023-01-22T03:48:05.021Z,103404.13
2023-01-22T03:48:42.707Z,103413.31
2023-01-22T03:49:14.696Z,103407.59
2023-01-22T03:49:49.069Z,103402.72
2023-01-22T03:50:21.990Z,103409.47
2023-01-22T03:50:55.885Z,103404.13
2023-01-22T03:51:30.199Z,103409.91
2023-01-22T03:52:06.902Z,103406.66
2023-01-22T03:52:38.645Z,103404.56
2023-01-22T03:53:10.368Z,103408.50
2023-01-22T03:53:46.768Z,103409.69
2023-01-22T03:54:18.409Z,103413.19
2023-01-22T03:54:50.107Z,103415.03
2023-01-22T03:55:23.519Z,103404.78
2023-01-22T03:56:03.748Z,103416.22
2023-01-22T03:56:35.241Z,103406.19
2023-01-22T03:57:09.253Z,103400.84
2023-01-22T03:57:45.416Z,103401.31
2023-01-22T03:58:16.912Z,103400.03
2023-01-22T03:58:51.486Z,103405.97
2023-01-22T03:59:25.070Z,103405.16
2023-01-22T03:59:56.595Z,103398.63
2023-01-22T04:00:29.536Z,103398.63
2023-01-22T04:01:05.867Z,103402.72
2023-01-22T04:01:39.875Z,103401.06
2023-01-22T04:02:11.636Z,103405.63
2023-01-22T04:02:43.453Z,103400.50
2023-01-22T04:03:20.178Z,103405.63
2023-01-22T04:03:51.844Z,103395.38
2023-01-22T04:04:25.975Z,103404.22
2023-01-22T04:04:57.590Z,103396.63
2023-01-22T04:05:30.196Z,103402.81
2023-01-22T04:06:05.773Z,103405.03
2023-01-22T04:06:38.782Z,103402.00
2023-01-22T04:07:10.409Z,103406.66
2023-01-22T04:07:44.667Z,103406.06
2023-01-22T04:08:16.336Z,103403.38
2023-01-22T04:08:54.568Z,103399.66
2023-01-22T04:09:31.258Z,103405.03
2023-01-22T04:10:05.032Z,103403.38
2023-01-22T04:10:39.474Z,103399.91
2023-01-22T04:11:12.584Z,103412.00
2023-01-22T04:11:45.511Z,103398.28
2023-01-22T04:12:18.638Z,103397.47
2023-01-22T04:12:52.360Z,103394.78
2023-01-22T04:13:25.203Z,103392.09
2023-01-22T04:14:04.274Z,103393.28
2023-01-22T04:14:38.499Z,103396.41
2023-01-22T04:15:13.444Z,103396.19
2023-01-22T04:15:45.412Z,103399.91
2023-01-22T04:16:19.437Z,103392.09
2023-01-22T04:16:52.432Z,103389.66
2023-01-22T04:17:26.625Z,103395.59
2023-01-22T04:17:59.481Z,103392.94
2023-01-22T04:18:35.651Z,103388.84
2023-01-22T04:19:08.694Z,103383.50
2023-01-22T04:19:41.692Z,103381.88
2023-01-22T04:20:13.350Z,103392.09
2023-01-22T04:20:45.619Z,103388.28
2023-01-22T04:21:20.969Z,103387.00
2023-01-22T04:21:54.854Z,103395.81
2023-01-22T04:22:26.790Z,103389.66
2023-01-22T04:23:00.756Z,103384.53
2023-01-22T04:23:32.441Z,103384.81
2023-01-22T04:24:04.139Z,103393.16
2023-01-22T04:24:39.029Z,103383.97
2023-01-22T04:25:10.647Z,103399.09
2023-01-22T04:25:44.686Z,103382.13
2023-01-22T04:26:18.979Z,103394.44
2023-01-22T04:26:52.612Z,103388.84
2023-01-22T04:27:24.087Z,103390.97
2023-01-22T04:27:58.438Z,103397.91
2023-01-22T04:28:31.748Z,103389.34
2023-01-22T04:29:05.266Z,103396.63
2023-01-22T04:29:36.771Z,103384.81
2023-01-22T04:30:08.979Z,103382.13
2023-01-22T04:30:42.103Z,103394.19
2023-01-22T04:31:13.848Z,103386.16
2023-01-22T04:31:45.506Z,103390.25
2023-01-22T04:32:16.885Z,103392.09
2023-01-22T04:32:48.479Z,103383.50
2023-01-22T04:33:20.507Z,103395.38
2023-01-22T04:33:54.427Z,103388.16
2023-01-22T04:34:26.142Z,103390.84
2023-01-22T04:34:58.164Z,103394.91
2023-01-22T04:35:30.621Z,103390.59
2023-01-22T04:36:04.966Z,103387.34
2023-01-22T04:36:36.570Z,103396.31
2023-01-22T04:37:08.053Z,103391.19
2023-01-22T04:37:39.481Z,103387.72
2023-01-22T04:38:13.381Z,103390.75
2023-01-22T04:38:45.416Z,103386.66
2023-01-22T04:39:19.912Z,103388.28
2023-01-22T04:39:54.006Z,103388.66
2023-01-22T04:40:27.368Z,103386.22
2023-01-22T04:40:58.924Z,103379.22
2023-01-22T04:41:32.562Z,103381.91
2023-01-22T04:42:07.791Z,103388.44
2023-01-22T04:42:40.119Z,103390.06
2023-01-22T04:43:11.941Z,103385.75
2023-01-22T04:43:43.430Z,103394.38
2023-01-22T04:44:17.868Z,103390.28
2023-01-22T04:44:50.760Z,103389.03
2023-01-22T04:45:26.983Z,103385.53
2023-01-22T04:46:00.044Z,103386.56
2023-01-22T04:46:33.594Z,103377.72
2023-01-22T04:47:05.092Z,103383.41
2023-01-22T04:47:40.675Z,103375.88
2023-01-22T04:48:12.644Z,103382.38
2023-01-22T04:48:46.033Z,103379.94
2023-01-22T04:49:17.536Z,103374.34
2023-01-22T04:49:49.506Z,103376.19
2023-01-22T04:50:24.168Z,103380.28
2023-01-22T04:50:58.467Z,103389.94
2023-01-22T04:51:30.167Z,103384.00
2023-01-22T04:52:02.228Z,103388.06
2023-01-22T04:52:35.939Z,103386.00
2023-01-22T04:53:09.178Z,103389.69
2023-01-22T04:53:40.723Z,103387.25
2023-01-22T04:54:14.934Z,103392.16
2023-01-22T04:54:48.686Z,103398.53
2023-01-22T04:55:20.961Z,103386.81
2023-01-22T04:55:52.477Z,103392.16
2023-01-22T04:56:23.885Z,103386.22
2023-01-22T04:56:55.381Z,103384.34
2023-01-22T04:57:26.962Z,103389.47
2023-01-22T04:58:01.874Z,103390.28
2023-01-22T04:58:34.568Z,103391.09
2023-01-22T04:59:09.208Z,103389.03
2023-01-22T04:59:42.404Z,103395.53
2023-01-22T05:00:17.781Z,103398.22
2023-01-22T05:00:51.769Z,103402.28
2023-01-22T05:01:23.389Z,103393.31
2023-01-22T05:01:55.120Z,103393.91
2023-01-22T05:02:26.690Z,103401.47
2023-01-22T05:02:59.711Z,103388.56
2023-01-22T05:03:32.538Z,103392.88
2023-01-22T05:04:07.206Z,103394.50
2023-01-22T05:04:38.699Z,103400.44
2023-01-22T05:05:10.668Z,103395.53
2023-01-22T05:05:42.324Z,103395.09
2023-01-22T05:06:16.231Z,103397.75
2023-01-22T05:06:47.940Z,103394.28
2023-01-22T05:07:19.593Z,103399.84
2023-01-22T05:07:51.392Z,103401.00
2023-01-22T05:08:25.887Z,103402.06
2023-01-22T05:09:00.183Z,103411.69
2023-01-22T05:09:31.704Z,103395.31
2023-01-22T05:10:06.383Z,103399.38
2023-01-22T05:10:39.529Z,103395.63
2023-01-22T05:11:14.381Z,103391.09
2023-01-22T05:11:46.406Z,103406.69
2023-01-22T05:12:18.040Z,103392.97
2023-01-22T05:12:49.908Z,103395.41
2023-01-22T05:13:30.358Z,103396.22
2023-01-22T05:14:01.889Z,103399.72
2023-01-22T05:14:36.372Z,103409.13
2023-01-22T05:15:22.473Z,103396.81
2023-01-22T05:15:56.521Z,103410.78
2023-01-22T05:16:28.187Z,103396.81
2023-01-22T05:17:01.781Z,103406.47
2023-01-22T05:17:33.388Z,103404.38
2023-01-22T05:18:04.933Z,103396.81
2023-01-22T05:18:38.933Z,103401.13
2023-01-22T05:19:13.183Z,103395.75
2023-01-22T05:19:46.435Z,103410.78
2023-01-22T05:20:18.732Z,103401.47
2023-01-22T05:20:50.825Z,103404.16
2023-01-22T05:21:25.905Z,103399.03
2023-01-22T05:22:04.684Z,103396.81
2023-01-22T05:22:38.942Z,103402.28
2023-01-22T05:23:11.413Z,103400.06
2023-01-22T05:23:43.770Z,103396.94
2023-01-22T05:24:15.530Z,103406.59
2023-01-22T05:24:49.155Z,103393.69
2023-01-22T05:25:20.666Z,103392.63
2023-01-22T05:25:52.841Z,103396.13
2023-01-22T05:26:24.544Z,103393.69
2023-01-22T05:26:59.317Z,103406.13
2023-01-22T05:27:30.926Z,103404.72
2023-01-22T05:28:02.395Z,103400.19
2023-01-22T05:28:34.498Z,103411.59
2023-01-22T05:29:08.689Z,103399.75
2023-01-22T05:29:40.360Z,103405.09
2023-01-22T05:30:13.298Z,103397.06
2023-01-22T05:30:45.061Z,103403.59
2023-01-22T05:31:17.995Z,103405.66
2023-01-22T05:31:53.757Z,103407.31
2023-01-22T05:32:25.270Z,103405.44
2023-01-22T05:33:00.036Z,103407.06
2023-01-22T05:33:32.241Z,103410.31
2023-01-22T05:34:04.185Z,103407.63
2023-01-22T05:34:35.700Z,103400.66
2023-01-22T05:35:07.604Z,103400.09
2023-01-22T05:35:41.389Z,103405.53
2023-01-22T05:36:13.678Z,103399.38
2023-01-22T05:36:45.930Z,103399.84
2023-01-22T05:37:19.457Z,103398.78
2023-01-22T05:37:51.197Z,103403.69
2023-01-22T05:38:31.266Z,103410.44
2023-01-22T05:39:03.025Z,103399.59
2023-01-22T05:39:34.870Z,103407.75
2023-01-22T05:40:09.399Z,103408.56
2023-01-22T05:40:41.110Z,103402.28
2023-01-22T05:41:19.951Z,103412.06
2023-01-22T05:41:52.282Z,103410.66
2023-01-22T05:43:13.060Z,103415.78
2023-01-22T05:43:44.462Z,103409.84
2023-01-22T05:44:18.272Z,103409.03
2023-01-22T05:44:49.810Z,103408.22
2023-01-22T05:45:21.951Z,103426.84
2023-01-22T05:45:56.420Z,103404.50
2023-01-22T05:46:30.643Z,103411.47
2023-01-22T05:47:02.950Z,103405.31
2023-01-22T05:47:34.596Z,103416.59
2023-01-22T05:48:06.435Z,103425.44
2023-01-22T05:48:40.223Z,103420.66
2023-01-22T05:49:14.334Z,103406.94
2023-01-22T05:49:49.018Z,103417.19
2023-01-22T05:50:24.417Z,103416.59
2023-01-22T05:50:58.386Z,103412.41
2023-01-22T05:51:32.265Z,103422.66
2023-01-22T05:52:05.930Z,103418.00
2023-01-22T05:52:39.263Z,103418.34
2023-01-22T05:53:10.852Z,103415.09
2023-01-22T05:53:45.589Z,103418.81
2023-01-22T05:54:17.274Z,103414.50
2023-01-22T05:54:48.729Z,103424.75
2023-01-22T05:55:20.197Z,103418.00
2023-01-22T05:55:51.717Z,103421.03
2023-01-22T05:56:23.320Z,103416.94
2023-01-22T05:56:54.887Z,103423.94
2023-01-22T05:57:27.807Z,103422.88
2023-01-22T05:58:01.931Z,103422.06
2023-01-22T05:58:35.352Z,103419.41
2023-01-22T05:59:06.861Z,103413.81
2023-01-22T05:59:38.299Z,103426.72
2023-01-22T06:00:10.523Z,103431.03
2023-01-22T06:00:42.304Z,103422.19
2023-01-22T06:01:14.296Z,103426.38
2023-01-22T06:01:45.785Z,103417.88
2023-01-22T06:02:19.275Z,103420.56
2023-01-22T06:02:56.058Z,103417.31
2023-01-22T06:03:27.564Z,103429.72
2023-01-22T06:04:00.966Z,103425.41
2023-01-22T06:04:34.172Z,103414.63
2023-01-22T06:05:06.428Z,103421.69
2023-01-22T06:05:40.638Z,103420.06
2023-01-22T06:06:13.594Z,103420.88
2023-01-22T06:06:47.698Z,103421.69
2023-01-22T06:07:19.627Z,103422.50
2023-01-22T06:07:53.991Z,103420.66
2023-01-22T06:08:26.032Z,103421.47
2023-01-22T06:08:59.889Z,103419.59
2023-01-22T06:09:31.428Z,103417.97
2023-01-22T06:10:03.282Z,103410.19
2023-01-22T06:10:39.993Z,103417.75
2023-01-22T06:11:14.941Z,103413.66
2023-01-22T06:11:46.470Z,103419.38
2023-01-22T06:12:20.664Z,103419.59
2023-01-22T06:12:54.756Z,103411.56
2023-01-22T06:13:27.242Z,103414.47
2023-01-22T06:14:01.176Z,103411.00
2023-01-22T06:14:33.336Z,103405.41
2023-01-22T06:15:06.127Z,103415.06
2023-01-22T06:15:41.891Z,103414.03
2023-01-22T06:16:13.497Z,103414.84
2023-01-22T06:16:46.791Z,103411.81
2023-01-22T06:17:21.740Z,103420.88
2023-01-22T06:17:53.206Z,103409.13
2023-01-22T06:18:43.662Z,103421.25
2023-01-22T06:19:16.418Z,103430.66
2023-01-22T06:19:51.265Z,103422.06
2023-01-22T06:20:22.886Z,103421.59
2023-01-22T06:21:02.109Z,103426.72
2023-01-22T06:21:36.529Z,103419.59
2023-01-22T06:22:08.143Z,103423.91
2023-01-22T06:22:39.712Z,103429.63
2023-01-22T06:23:11.216Z,103426.59
2023-01-22T06:23:42.711Z,103419.38
2023-01-22T06:24:14.358Z,103421.81
2023-01-22T06:24:46.047Z,103417.97
2023-01-22T06:25:19.836Z,103412.16
2023-01-22T06:25:57.005Z,103417.50
2023-01-22T06:26:28.575Z,103424.50
2023-01-22T06:27:00.185Z,103418.56
2023-01-22T06:27:31.724Z,103421.59
2023-01-22T06:28:06.167Z,103415.41
2023-01-22T06:28:39.774Z,103419.72
2023-01-22T06:29:14.049Z,103422.41
2023-01-22T06:29:46.641Z,103417.06
2023-01-22T06:30:21.194Z,103418.09
2023-01-22T06:30:57.300Z,103423.44
2023-01-22T06:31:31.947Z,103415.41
2023-01-22T06:32:06.094Z,103413.78
2023-01-22T06:32:37.543Z,103412.16